sensor_id;sensor_type;location;lat;lon;timestamp;P1;durP1;ratioP1;P2;durP2;ratioP2
52574;SDS011;38468;48.114;-1.684;2023-04-03T00:01:36;7.55;;;3.63;;
52574;SDS011;38468;48.114;-1.684;2023-04-03T00:03:38;4.45;;;3.08;;
52574;SDS011;38468;48.114;-1.684;2023-04-03T00:05:38;5.72;;;3.75;;
52574;SDS011;38468;48.114;-1.684;2023-04-03T00:07:39;7.40;;;3.60;;
52574;SDS011;38468;48.114;-1.684;2023-04-03T00:09:40;4.13;;;2.42;;
52574;SDS011;38468;48.114;-1.684;2023-04-03T00:11:40;3.10;;;2.67;;
52574;SDS011;38468;48.114;-1.684;2023-04-03T00:13:41;5.28;;;3.17;;
52574;SDS011;38468;48.114;-1.684;2023-04-03T00:15:42;14.73;;;4.30;;
52574;SDS011;38468;48.114;-1.684;2023-04-03T00:17:43;3.90;;;2.35;;
52574;SDS011;38468;48.114;-1.684;2023-04-03T00:19:44;5.65;;;3.17;;
52574;SDS011;38468;48.114;-1.684;2023-04-03T00:21:45;6.60;;;3.22;;
52574;SDS011;38468;48.114;-1.684;2023-04-03T00:23:45;6.93;;;2.97;;
52574;SDS011;38468;48.114;-1.684;2023-04-03T00:25:46;6.88;;;3.42;;
52574;SDS011;38468;48.114;-1.684;2023-04-03T00:27:47;4.28;;;2.50;;
52574;SDS011;38468;48.114;-1.684;2023-04-03T00:29:48;11.82;;;3.10;;
52574;SDS011;38468;48.114;-1.684;2023-04-03T00:31:48;5.53;;;2.67;;
52574;SDS011;38468;48.114;-1.684;2023-04-03T00:33:49;8.48;;;3.25;;
52574;SDS011;38468;48.114;-1.684;2023-04-03T00:35:50;5.15;;;2.88;;
52574;SDS011;38468;48.114;-1.684;2023-04-03T00:37:51;4.93;;;2.58;;
52574;SDS011;38468;48.114;-1.684;2023-04-03T00:39:53;12.73;;;2.65;;
52574;SDS011;38468;48.114;-1.684;2023-04-03T00:41:53;7.85;;;3.55;;
52574;SDS011;38468;48.114;-1.684;2023-04-03T00:43:54;9.93;;;3.08;;
52574;SDS011;38468;48.114;-1.684;2023-04-03T00:45:56;8.07;;;2.45;;
52574;SDS011;38468;48.114;-1.684;2023-04-03T00:52:02;5.43;;;2.22;;
52574;SDS011;38468;48.114;-1.684;2023-04-03T00:54:05;6.80;;;2.80;;
52574;SDS011;38468;48.114;-1.684;2023-04-03T00:56:08;5.57;;;3.55;;
52574;SDS011;38468;48.114;-1.684;2023-04-03T00:58:12;7.35;;;3.17;;
52574;SDS011;38468;48.114;-1.684;2023-04-03T01:00:16;10.63;;;2.95;;
52574;SDS011;38468;48.114;-1.684;2023-04-03T01:02:20;10.75;;;2.97;;
52574;SDS011;38468;48.114;-1.684;2023-04-03T01:06:35;5.15;;;2.53;;
52574;SDS011;38468;48.114;-1.684;2023-04-03T01:08:37;2.65;;;2.28;;
52574;SDS011;38468;48.114;-1.684;2023-04-03T01:10:38;7.22;;;3.05;;
52574;SDS011;38468;48.114;-1.684;2023-04-03T01:12:40;19.02;;;3.53;;
52574;SDS011;38468;48.114;-1.684;2023-04-03T01:14:46;5.93;;;2.70;;
52574;SDS011;38468;48.114;-1.684;2023-04-03T01:16:53;10.10;;;3.40;;
52574;SDS011;38468;48.114;-1.684;2023-04-03T01:18:54;6.13;;;3.15;;
52574;SDS011;38468;48.114;-1.684;2023-04-03T01:22:59;4.57;;;2.10;;
52574;SDS011;38468;48.114;-1.684;2023-04-03T01:25:09;4.25;;;2.83;;
52574;SDS011;38468;48.114;-1.684;2023-04-03T01:27:10;6.80;;;3.42;;
52574;SDS011;38468;48.114;-1.684;2023-04-03T01:29:12;14.33;;;3.00;;
52574;SDS011;38468;48.114;-1.684;2023-04-03T01:33:16;5.65;;;2.38;;
52574;SDS011;38468;48.114;-1.684;2023-04-03T01:35:16;8.30;;;3.03;;
52574;SDS011;38468;48.114;-1.684;2023-04-03T01:37:17;11.05;;;2.80;;
52574;SDS011;38468;48.114;-1.684;2023-04-03T01:39:18;9.05;;;3.20;;
52574;SDS011;38468;48.114;-1.684;2023-04-03T01:41:19;8.80;;;4.28;;
52574;SDS011;38468;48.114;-1.684;2023-04-03T01:43:21;7.05;;;2.63;;
52574;SDS011;38468;48.114;-1.684;2023-04-03T01:45:21;6.10;;;2.40;;
52574;SDS011;38468;48.114;-1.684;2023-04-03T01:47:22;5.47;;;2.78;;
52574;SDS011;38468;48.114;-1.684;2023-04-03T01:49:23;9.45;;;3.13;;
52574;SDS011;38468;48.114;-1.684;2023-04-03T01:51:23;5.63;;;2.25;;
52574;SDS011;38468;48.114;-1.684;2023-04-03T01:53:24;4.85;;;3.35;;
52574;SDS011;38468;48.114;-1.684;2023-04-03T01:55:25;12.50;;;2.50;;
52574;SDS011;38468;48.114;-1.684;2023-04-03T01:57:25;5.45;;;2.72;;
52574;SDS011;38468;48.114;-1.684;2023-04-03T01:59:26;19.75;;;4.82;;
52574;SDS011;38468;48.114;-1.684;2023-04-03T02:01:28;5.97;;;5.37;;
52574;SDS011;38468;48.114;-1.684;2023-04-03T02:03:28;7.30;;;4.53;;
52574;SDS011;38468;48.114;-1.684;2023-04-03T02:05:29;5.90;;;4.82;;
52574;SDS011;38468;48.114;-1.684;2023-04-03T02:07:30;5.20;;;3.08;;
52574;SDS011;38468;48.114;-1.684;2023-04-03T02:09:30;12.27;;;6.82;;
52574;SDS011;38468;48.114;-1.684;2023-04-03T02:11:31;16.13;;;5.55;;
52574;SDS011;38468;48.114;-1.684;2023-04-03T02:13:32;4.88;;;4.28;;
52574;SDS011;38468;48.114;-1.684;2023-04-03T02:15:33;10.40;;;3.78;;
52574;SDS011;38468;48.114;-1.684;2023-04-03T02:17:34;12.57;;;4.68;;
52574;SDS011;38468;48.114;-1.684;2023-04-03T02:19:35;5.15;;;3.15;;
52574;SDS011;38468;48.114;-1.684;2023-04-03T02:21:35;11.25;;;5.57;;
52574;SDS011;38468;48.114;-1.684;2023-04-03T02:23:36;6.30;;;5.68;;
52574;SDS011;38468;48.114;-1.684;2023-04-03T02:25:37;7.72;;;3.35;;
52574;SDS011;38468;48.114;-1.684;2023-04-03T02:27:38;8.18;;;3.08;;
52574;SDS011;38468;48.114;-1.684;2023-04-03T02:29:38;4.80;;;2.60;;
52574;SDS011;38468;48.114;-1.684;2023-04-03T02:31:39;12.30;;;2.47;;
52574;SDS011;38468;48.114;-1.684;2023-04-03T02:33:40;5.70;;;2.20;;
52574;SDS011;38468;48.114;-1.684;2023-04-03T02:35:41;10.77;;;2.85;;
52574;SDS011;38468;48.114;-1.684;2023-04-03T02:37:41;17.17;;;2.95;;
52574;SDS011;38468;48.114;-1.684;2023-04-03T02:39:42;5.00;;;2.75;;
52574;SDS011;38468;48.114;-1.684;2023-04-03T02:41:42;10.10;;;3.15;;
52574;SDS011;38468;48.114;-1.684;2023-04-03T02:43:43;17.02;;;2.72;;
52574;SDS011;38468;48.114;-1.684;2023-04-03T02:45:44;14.57;;;2.65;;
52574;SDS011;38468;48.114;-1.684;2023-04-03T02:47:44;5.97;;;2.42;;
52574;SDS011;38468;48.114;-1.684;2023-04-03T02:49:45;7.57;;;2.28;;
52574;SDS011;38468;48.114;-1.684;2023-04-03T02:51:46;3.08;;;2.30;;
52574;SDS011;38468;48.114;-1.684;2023-04-03T02:53:47;6.80;;;3.15;;
52574;SDS011;38468;48.114;-1.684;2023-04-03T02:55:48;8.68;;;2.17;;
52574;SDS011;38468;48.114;-1.684;2023-04-03T02:57:49;4.28;;;2.50;;
52574;SDS011;38468;48.114;-1.684;2023-04-03T02:59:49;5.75;;;2.58;;
52574;SDS011;38468;48.114;-1.684;2023-04-03T03:01:50;5.07;;;2.53;;
52574;SDS011;38468;48.114;-1.684;2023-04-03T03:03:51;3.08;;;1.92;;
52574;SDS011;38468;48.114;-1.684;2023-04-03T03:06:00;5.43;;;2.58;;
52574;SDS011;38468;48.114;-1.684;2023-04-03T03:08:05;9.48;;;3.33;;
52574;SDS011;38468;48.114;-1.684;2023-04-03T03:10:05;21.38;;;4.07;;
52574;SDS011;38468;48.114;-1.684;2023-04-03T03:12:06;6.85;;;2.80;;
52574;SDS011;38468;48.114;-1.684;2023-04-03T03:14:07;8.82;;;2.22;;
52574;SDS011;38468;48.114;-1.684;2023-04-03T03:16:08;9.93;;;2.67;;
52574;SDS011;38468;48.114;-1.684;2023-04-03T03:18:08;14.45;;;1.98;;
52574;SDS011;38468;48.114;-1.684;2023-04-03T03:20:09;8.63;;;6.70;;
52574;SDS011;38468;48.114;-1.684;2023-04-03T03:22:11;3.40;;;2.40;;
52574;SDS011;38468;48.114;-1.684;2023-04-03T03:24:11;3.80;;;2.67;;
52574;SDS011;38468;48.114;-1.684;2023-04-03T03:26:12;4.30;;;2.40;;
52574;SDS011;38468;48.114;-1.684;2023-04-03T03:28:13;6.72;;;3.08;;
52574;SDS011;38468;48.114;-1.684;2023-04-03T03:30:14;13.88;;;2.95;;
52574;SDS011;38468;48.114;-1.684;2023-04-03T03:32:15;4.70;;;2.28;;
52574;SDS011;38468;48.114;-1.684;2023-04-03T03:34:16;10.68;;;5.10;;
52574;SDS011;38468;48.114;-1.684;2023-04-03T03:36:16;5.60;;;2.40;;
52574;SDS011;38468;48.114;-1.684;2023-04-03T03:38:17;12.45;;;3.15;;
52574;SDS011;38468;48.114;-1.684;2023-04-03T03:40:18;3.53;;;2.28;;
52574;SDS011;38468;48.114;-1.684;2023-04-03T03:42:19;4.50;;;2.30;;
52574;SDS011;38468;48.114;-1.684;2023-04-03T03:44:20;5.60;;;2.55;;
52574;SDS011;38468;48.114;-1.684;2023-04-03T03:46:20;4.20;;;2.72;;
52574;SDS011;38468;48.114;-1.684;2023-04-03T03:48:23;15.65;;;2.80;;
52574;SDS011;38468;48.114;-1.684;2023-04-03T03:50:23;6.35;;;2.33;;
52574;SDS011;38468;48.114;-1.684;2023-04-03T03:52:24;5.28;;;2.10;;
52574;SDS011;38468;48.114;-1.684;2023-04-03T03:54:26;13.38;;;4.47;;
52574;SDS011;38468;48.114;-1.684;2023-04-03T03:56:26;12.98;;;3.00;;
52574;SDS011;38468;48.114;-1.684;2023-04-03T03:58:27;10.43;;;3.83;;
52574;SDS011;38468;48.114;-1.684;2023-04-03T04:00:27;9.68;;;3.60;;
52574;SDS011;38468;48.114;-1.684;2023-04-03T04:02:28;4.05;;;2.75;;
52574;SDS011;38468;48.114;-1.684;2023-04-03T04:04:29;14.50;;;2.22;;
52574;SDS011;38468;48.114;-1.684;2023-04-03T04:06:29;13.82;;;5.43;;
52574;SDS011;38468;48.114;-1.684;2023-04-03T04:08:30;7.93;;;2.08;;
52574;SDS011;38468;48.114;-1.684;2023-04-03T04:10:31;3.83;;;3.08;;
52574;SDS011;38468;48.114;-1.684;2023-04-03T04:12:31;8.50;;;7.25;;
52574;SDS011;38468;48.114;-1.684;2023-04-03T04:14:32;6.47;;;3.30;;
52574;SDS011;38468;48.114;-1.684;2023-04-03T04:16:33;3.67;;;3.38;;
52574;SDS011;38468;48.114;-1.684;2023-04-03T04:18:33;10.90;;;5.00;;
52574;SDS011;38468;48.114;-1.684;2023-04-03T04:20:34;9.48;;;4.57;;
52574;SDS011;38468;48.114;-1.684;2023-04-03T04:22:35;9.85;;;4.05;;
52574;SDS011;38468;48.114;-1.684;2023-04-03T04:24:36;6.93;;;5.32;;
52574;SDS011;38468;48.114;-1.684;2023-04-03T04:26:36;14.85;;;9.57;;
52574;SDS011;38468;48.114;-1.684;2023-04-03T04:28:37;14.88;;;9.88;;
52574;SDS011;38468;48.114;-1.684;2023-04-03T04:30:37;8.50;;;1.85;;
52574;SDS011;38468;48.114;-1.684;2023-04-03T04:32:38;8.40;;;2.20;;
52574;SDS011;38468;48.114;-1.684;2023-04-03T04:34:39;7.07;;;2.65;;
52574;SDS011;38468;48.114;-1.684;2023-04-03T04:36:39;5.15;;;2.55;;
52574;SDS011;38468;48.114;-1.684;2023-04-03T04:38:40;9.13;;;1.58;;
52574;SDS011;38468;48.114;-1.684;2023-04-03T04:40:41;7.10;;;1.75;;
52574;SDS011;38468;48.114;-1.684;2023-04-03T04:42:42;7.50;;;1.65;;
52574;SDS011;38468;48.114;-1.684;2023-04-03T04:44:43;11.95;;;1.92;;
52574;SDS011;38468;48.114;-1.684;2023-04-03T04:46:44;10.23;;;2.75;;
52574;SDS011;38468;48.114;-1.684;2023-04-03T04:48:45;5.15;;;2.13;;
52574;SDS011;38468;48.114;-1.684;2023-04-03T04:50:46;3.53;;;1.95;;
52574;SDS011;38468;48.114;-1.684;2023-04-03T04:52:46;14.63;;;1.63;;
52574;SDS011;38468;48.114;-1.684;2023-04-03T04:54:47;5.90;;;2.13;;
52574;SDS011;38468;48.114;-1.684;2023-04-03T04:56:48;9.55;;;2.30;;
52574;SDS011;38468;48.114;-1.684;2023-04-03T04:58:48;4.25;;;2.17;;
52574;SDS011;38468;48.114;-1.684;2023-04-03T05:00:49;2.58;;;1.75;;
52574;SDS011;38468;48.114;-1.684;2023-04-03T05:02:50;1.05;;;0.90;;
52574;SDS011;38468;48.114;-1.684;2023-04-03T05:04:50;7.30;;;2.22;;
52574;SDS011;38468;48.114;-1.684;2023-04-03T05:06:52;3.10;;;1.30;;
52574;SDS011;38468;48.114;-1.684;2023-04-03T05:08:52;7.97;;;1.95;;
52574;SDS011;38468;48.114;-1.684;2023-04-03T05:10:53;9.52;;;3.25;;
52574;SDS011;38468;48.114;-1.684;2023-04-03T05:12:53;2.22;;;1.88;;
52574;SDS011;38468;48.114;-1.684;2023-04-03T05:14:54;5.57;;;1.75;;
52574;SDS011;38468;48.114;-1.684;2023-04-03T05:16:55;12.30;;;2.92;;
52574;SDS011;38468;48.114;-1.684;2023-04-03T05:18:56;8.02;;;1.85;;
52574;SDS011;38468;48.114;-1.684;2023-04-03T05:20:56;10.35;;;2.72;;
52574;SDS011;38468;48.114;-1.684;2023-04-03T05:22:58;5.22;;;2.08;;
52574;SDS011;38468;48.114;-1.684;2023-04-03T05:24:59;5.50;;;2.45;;
52574;SDS011;38468;48.114;-1.684;2023-04-03T05:27:00;6.07;;;2.25;;
52574;SDS011;38468;48.114;-1.684;2023-04-03T05:29:01;3.10;;;1.55;;
52574;SDS011;38468;48.114;-1.684;2023-04-03T05:31:02;11.63;;;2.42;;
52574;SDS011;38468;48.114;-1.684;2023-04-03T05:33:02;13.10;;;4.35;;
52574;SDS011;38468;48.114;-1.684;2023-04-03T05:35:04;2.17;;;1.75;;
52574;SDS011;38468;48.114;-1.684;2023-04-03T05:37:05;10.50;;;2.40;;
52574;SDS011;38468;48.114;-1.684;2023-04-03T05:39:06;10.65;;;1.88;;
52574;SDS011;38468;48.114;-1.684;2023-04-03T05:41:07;6.57;;;2.35;;
52574;SDS011;38468;48.114;-1.684;2023-04-03T05:43:08;3.63;;;2.38;;
52574;SDS011;38468;48.114;-1.684;2023-04-03T05:45:09;6.85;;;2.45;;
52574;SDS011;38468;48.114;-1.684;2023-04-03T05:47:10;4.07;;;2.28;;
52574;SDS011;38468;48.114;-1.684;2023-04-03T05:49:11;12.32;;;2.60;;
52574;SDS011;38468;48.114;-1.684;2023-04-03T05:51:18;3.28;;;2.17;;
52574;SDS011;38468;48.114;-1.684;2023-04-03T05:53:27;5.22;;;2.88;;
52574;SDS011;38468;48.114;-1.684;2023-04-03T05:55:29;5.80;;;2.60;;
52574;SDS011;38468;48.114;-1.684;2023-04-03T05:57:30;5.75;;;2.70;;
52574;SDS011;38468;48.114;-1.684;2023-04-03T05:59:31;7.57;;;2.40;;
52574;SDS011;38468;48.114;-1.684;2023-04-03T06:01:31;5.22;;;2.42;;
52574;SDS011;38468;48.114;-1.684;2023-04-03T06:03:32;4.93;;;3.05;;
52574;SDS011;38468;48.114;-1.684;2023-04-03T06:05:33;4.18;;;2.40;;
52574;SDS011;38468;48.114;-1.684;2023-04-03T06:07:34;3.47;;;2.95;;
52574;SDS011;38468;48.114;-1.684;2023-04-03T06:09:34;5.70;;;2.92;;
52574;SDS011;38468;48.114;-1.684;2023-04-03T06:11:35;7.15;;;2.65;;
52574;SDS011;38468;48.114;-1.684;2023-04-03T06:13:36;5.80;;;3.28;;
52574;SDS011;38468;48.114;-1.684;2023-04-03T06:15:37;7.85;;;2.45;;
52574;SDS011;38468;48.114;-1.684;2023-04-03T06:17:38;8.52;;;3.40;;
52574;SDS011;38468;48.114;-1.684;2023-04-03T06:19:39;10.20;;;2.88;;
52574;SDS011;38468;48.114;-1.684;2023-04-03T06:21:40;6.07;;;2.00;;
52574;SDS011;38468;48.114;-1.684;2023-04-03T06:23:40;2.65;;;2.13;;
52574;SDS011;38468;48.114;-1.684;2023-04-03T06:25:41;22.98;;;3.35;;
52574;SDS011;38468;48.114;-1.684;2023-04-03T06:27:42;3.03;;;2.75;;
52574;SDS011;38468;48.114;-1.684;2023-04-03T06:29:43;3.40;;;2.15;;
52574;SDS011;38468;48.114;-1.684;2023-04-03T06:31:45;13.20;;;2.50;;
52574;SDS011;38468;48.114;-1.684;2023-04-03T06:33:46;8.30;;;3.13;;
52574;SDS011;38468;48.114;-1.684;2023-04-03T06:35:46;5.85;;;3.13;;
52574;SDS011;38468;48.114;-1.684;2023-04-03T06:37:47;8.02;;;3.65;;
52574;SDS011;38468;48.114;-1.684;2023-04-03T06:39:48;6.55;;;2.70;;
52574;SDS011;38468;48.114;-1.684;2023-04-03T06:41:49;6.03;;;3.80;;
52574;SDS011;38468;48.114;-1.684;2023-04-03T06:43:50;12.50;;;3.03;;
52574;SDS011;38468;48.114;-1.684;2023-04-03T06:45:51;3.92;;;2.80;;
52574;SDS011;38468;48.114;-1.684;2023-04-03T06:47:52;6.05;;;2.90;;
52574;SDS011;38468;48.114;-1.684;2023-04-03T06:49:52;12.48;;;3.83;;
52574;SDS011;38468;48.114;-1.684;2023-04-03T06:51:53;3.50;;;3.20;;
52574;SDS011;38468;48.114;-1.684;2023-04-03T06:53:54;10.02;;;3.65;;
52574;SDS011;38468;48.114;-1.684;2023-04-03T06:57:57;4.85;;;2.50;;
52574;SDS011;38468;48.114;-1.684;2023-04-03T06:59:58;6.65;;;2.60;;
52574;SDS011;38468;48.114;-1.684;2023-04-03T07:01:58;10.13;;;4.43;;
52574;SDS011;38468;48.114;-1.684;2023-04-03T07:03:59;13.07;;;3.75;;
52574;SDS011;38468;48.114;-1.684;2023-04-03T07:06:00;3.13;;;2.83;;
52574;SDS011;38468;48.114;-1.684;2023-04-03T07:08:01;8.27;;;4.22;;
52574;SDS011;38468;48.114;-1.684;2023-04-03T07:10:02;8.95;;;3.42;;
52574;SDS011;38468;48.114;-1.684;2023-04-03T07:12:02;8.40;;;4.13;;
52574;SDS011;38468;48.114;-1.684;2023-04-03T07:14:03;8.82;;;4.22;;
52574;SDS011;38468;48.114;-1.684;2023-04-03T07:16:04;4.90;;;3.65;;
52574;SDS011;38468;48.114;-1.684;2023-04-03T07:18:06;8.23;;;3.47;;
52574;SDS011;38468;48.114;-1.684;2023-04-03T07:20:07;5.40;;;3.72;;
52574;SDS011;38468;48.114;-1.684;2023-04-03T07:22:08;14.25;;;3.05;;
52574;SDS011;38468;48.114;-1.684;2023-04-03T07:24:10;4.72;;;3.30;;
52574;SDS011;38468;48.114;-1.684;2023-04-03T07:26:11;7.00;;;3.75;;
52574;SDS011;38468;48.114;-1.684;2023-04-03T07:28:12;6.25;;;4.03;;
52574;SDS011;38468;48.114;-1.684;2023-04-03T07:30:13;6.00;;;4.35;;
52574;SDS011;38468;48.114;-1.684;2023-04-03T07:32:14;7.50;;;3.15;;
52574;SDS011;38468;48.114;-1.684;2023-04-03T07:34:15;7.10;;;3.88;;
52574;SDS011;38468;48.114;-1.684;2023-04-03T07:36:17;18.85;;;4.43;;
52574;SDS011;38468;48.114;-1.684;2023-04-03T07:38:19;6.38;;;3.70;;
52574;SDS011;38468;48.114;-1.684;2023-04-03T07:40:20;4.60;;;3.22;;
52574;SDS011;38468;48.114;-1.684;2023-04-03T07:42:21;5.97;;;3.45;;
52574;SDS011;38468;48.114;-1.684;2023-04-03T07:44:22;9.05;;;3.88;;
52574;SDS011;38468;48.114;-1.684;2023-04-03T07:46:23;9.02;;;4.05;;
52574;SDS011;38468;48.114;-1.684;2023-04-03T07:48:25;4.63;;;2.85;;
52574;SDS011;38468;48.114;-1.684;2023-04-03T07:50:25;4.72;;;3.58;;
52574;SDS011;38468;48.114;-1.684;2023-04-03T07:52:27;7.20;;;4.40;;
52574;SDS011;38468;48.114;-1.684;2023-04-03T07:54:27;6.53;;;4.63;;
52574;SDS011;38468;48.114;-1.684;2023-04-03T07:56:28;12.82;;;4.22;;
52574;SDS011;38468;48.114;-1.684;2023-04-03T07:58:29;8.10;;;6.10;;
52574;SDS011;38468;48.114;-1.684;2023-04-03T08:00:30;12.43;;;4.57;;
52574;SDS011;38468;48.114;-1.684;2023-04-03T08:02:31;9.98;;;3.63;;
52574;SDS011;38468;48.114;-1.684;2023-04-03T08:04:34;3.20;;;2.90;;
52574;SDS011;38468;48.114;-1.684;2023-04-03T08:06:35;7.70;;;5.10;;
52574;SDS011;38468;48.114;-1.684;2023-04-03T08:08:36;3.67;;;3.15;;
52574;SDS011;38468;48.114;-1.684;2023-04-03T08:10:37;7.72;;;4.25;;
52574;SDS011;38468;48.114;-1.684;2023-04-03T08:12:37;6.82;;;4.20;;
52574;SDS011;38468;48.114;-1.684;2023-04-03T08:14:38;10.65;;;3.88;;
52574;SDS011;38468;48.114;-1.684;2023-04-03T08:16:39;8.38;;;3.30;;
52574;SDS011;38468;48.114;-1.684;2023-04-03T08:18:40;14.63;;;3.65;;
52574;SDS011;38468;48.114;-1.684;2023-04-03T08:20:41;6.07;;;4.18;;
52574;SDS011;38468;48.114;-1.684;2023-04-03T08:22:42;7.07;;;4.70;;
52574;SDS011;38468;48.114;-1.684;2023-04-03T08:24:43;12.13;;;4.88;;
52574;SDS011;38468;48.114;-1.684;2023-04-03T08:26:43;11.90;;;4.20;;
52574;SDS011;38468;48.114;-1.684;2023-04-03T08:28:44;8.65;;;4.00;;
52574;SDS011;38468;48.114;-1.684;2023-04-03T08:30:45;8.40;;;4.75;;
52574;SDS011;38468;48.114;-1.684;2023-04-03T08:32:46;5.13;;;4.18;;
52574;SDS011;38468;48.114;-1.684;2023-04-03T08:34:46;6.85;;;4.68;;
52574;SDS011;38468;48.114;-1.684;2023-04-03T08:36:47;11.20;;;4.68;;
52574;SDS011;38468;48.114;-1.684;2023-04-03T08:38:48;7.25;;;3.35;;
52574;SDS011;38468;48.114;-1.684;2023-04-03T08:41:01;8.70;;;4.72;;
52574;SDS011;38468;48.114;-1.684;2023-04-03T08:51:51;7.50;;;4.10;;
52574;SDS011;38468;48.114;-1.684;2023-04-03T08:54:00;6.78;;;4.53;;
52574;SDS011;38468;48.114;-1.684;2023-04-03T08:56:06;7.37;;;4.90;;
52574;SDS011;38468;48.114;-1.684;2023-04-03T08:58:12;8.98;;;4.47;;
52574;SDS011;38468;48.114;-1.684;2023-04-03T09:00:18;5.60;;;3.95;;
52574;SDS011;38468;48.114;-1.684;2023-04-03T09:02:24;13.88;;;4.85;;
52574;SDS011;38468;48.114;-1.684;2023-04-03T09:04:29;15.45;;;5.72;;
52574;SDS011;38468;48.114;-1.684;2023-04-03T09:06:32;7.28;;;4.57;;
52574;SDS011;38468;48.114;-1.684;2023-04-03T09:08:43;6.88;;;4.32;;
52574;SDS011;38468;48.114;-1.684;2023-04-03T09:13:49;5.28;;;4.35;;
52574;SDS011;38468;48.114;-1.684;2023-04-03T09:15:57;10.13;;;4.68;;
52574;SDS011;38468;48.114;-1.684;2023-04-03T09:21:08;8.65;;;4.78;;
52574;SDS011;38468;48.114;-1.684;2023-04-03T09:23:18;7.00;;;4.22;;
52574;SDS011;38468;48.114;-1.684;2023-04-03T09:25:33;10.15;;;4.88;;
52574;SDS011;38468;48.114;-1.684;2023-04-03T09:27:37;8.75;;;4.50;;
52574;SDS011;38468;48.114;-1.684;2023-04-03T09:29:39;13.73;;;5.80;;
52574;SDS011;38468;48.114;-1.684;2023-04-03T09:31:47;9.43;;;4.53;;
52574;SDS011;38468;48.114;-1.684;2023-04-03T09:33:50;10.50;;;4.85;;
52574;SDS011;38468;48.114;-1.684;2023-04-03T09:35:55;11.15;;;4.93;;
52574;SDS011;38468;48.114;-1.684;2023-04-03T09:38:00;8.48;;;4.68;;
52574;SDS011;38468;48.114;-1.684;2023-04-03T09:42:28;13.00;;;7.10;;
52574;SDS011;38468;48.114;-1.684;2023-04-03T09:44:32;7.57;;;4.80;;
52574;SDS011;38468;48.114;-1.684;2023-04-03T09:46:37;8.38;;;4.90;;
52574;SDS011;38468;48.114;-1.684;2023-04-03T09:48:38;7.53;;;4.60;;
52574;SDS011;38468;48.114;-1.684;2023-04-03T09:52:51;6.28;;;4.85;;
52574;SDS011;38468;48.114;-1.684;2023-04-03T09:54:52;8.15;;;4.93;;
52574;SDS011;38468;48.114;-1.684;2023-04-03T09:56:53;8.93;;;4.88;;
52574;SDS011;38468;48.114;-1.684;2023-04-03T10:00:59;11.10;;;4.40;;
52574;SDS011;38468;48.114;-1.684;2023-04-03T10:05:02;13.07;;;5.47;;
52574;SDS011;38468;48.114;-1.684;2023-04-03T10:09:30;11.63;;;5.28;;
52574;SDS011;38468;48.114;-1.684;2023-04-03T10:11:33;12.52;;;5.72;;
52574;SDS011;38468;48.114;-1.684;2023-04-03T10:13:33;16.00;;;4.70;;
52574;SDS011;38468;48.114;-1.684;2023-04-03T10:15:39;8.02;;;5.20;;
52574;SDS011;38468;48.114;-1.684;2023-04-03T10:19:49;8.98;;;5.88;;
52574;SDS011;38468;48.114;-1.684;2023-04-03T10:27:18;9.13;;;5.28;;
52574;SDS011;38468;48.114;-1.684;2023-04-03T10:29:52;9.23;;;4.43;;
52574;SDS011;38468;48.114;-1.684;2023-04-03T10:44:08;9.38;;;5.38;;
52574;SDS011;38468;48.114;-1.684;2023-04-03T10:46:47;7.32;;;4.45;;
52574;SDS011;38468;48.114;-1.684;2023-04-03T10:49:13;9.05;;;5.00;;
52574;SDS011;38468;48.114;-1.684;2023-04-03T10:57:49;11.65;;;5.00;;
52574;SDS011;38468;48.114;-1.684;2023-04-03T10:59:51;14.93;;;6.10;;
52574;SDS011;38468;48.114;-1.684;2023-04-03T11:01:58;11.38;;;4.97;;
52574;SDS011;38468;48.114;-1.684;2023-04-03T11:04:03;8.75;;;4.75;;
52574;SDS011;38468;48.114;-1.684;2023-04-03T11:06:07;10.45;;;6.80;;
52574;SDS011;38468;48.114;-1.684;2023-04-03T11:08:33;10.85;;;6.35;;
52574;SDS011;38468;48.114;-1.684;2023-04-03T11:10:51;8.98;;;4.85;;
52574;SDS011;38468;48.114;-1.684;2023-04-03T11:15:43;12.02;;;5.53;;
52574;SDS011;38468;48.114;-1.684;2023-04-03T11:17:48;10.23;;;5.05;;
52574;SDS011;38468;48.114;-1.684;2023-04-03T11:20:00;10.68;;;6.20;;
52574;SDS011;38468;48.114;-1.684;2023-04-03T11:22:22;9.38;;;6.40;;
52574;SDS011;38468;48.114;-1.684;2023-04-03T11:24:36;13.02;;;6.22;;
52574;SDS011;38468;48.114;-1.684;2023-04-03T11:26:40;7.30;;;4.60;;
52574;SDS011;38468;48.114;-1.684;2023-04-03T11:35:28;13.23;;;5.03;;
52574;SDS011;38468;48.114;-1.684;2023-04-03T11:37:39;11.03;;;4.80;;
52574;SDS011;38468;48.114;-1.684;2023-04-03T11:39:57;8.88;;;5.25;;
52574;SDS011;38468;48.114;-1.684;2023-04-03T11:42:15;9.43;;;5.03;;
52574;SDS011;38468;48.114;-1.684;2023-04-03T11:44:28;9.27;;;5.13;;
52574;SDS011;38468;48.114;-1.684;2023-04-03T11:49:19;12.95;;;6.15;;
52574;SDS011;38468;48.114;-1.684;2023-04-03T11:51:47;8.25;;;5.30;;
52574;SDS011;38468;48.114;-1.684;2023-04-03T11:53:47;7.30;;;5.28;;
52574;SDS011;38468;48.114;-1.684;2023-04-03T11:59:58;7.65;;;5.95;;
52574;SDS011;38468;48.114;-1.684;2023-04-03T12:01:59;9.65;;;5.72;;
52574;SDS011;38468;48.114;-1.684;2023-04-03T12:04:05;9.40;;;4.82;;
52574;SDS011;38468;48.114;-1.684;2023-04-03T12:08:55;8.00;;;4.32;;
52574;SDS011;38468;48.114;-1.684;2023-04-03T12:10:40;7.43;;;4.25;;
52574;SDS011;38468;48.114;-1.684;2023-04-03T12:12:40;9.45;;;5.50;;
52574;SDS011;38468;48.114;-1.684;2023-04-03T12:14:41;9.80;;;5.35;;
52574;SDS011;38468;48.114;-1.684;2023-04-03T12:16:46;8.57;;;5.82;;
52574;SDS011;38468;48.114;-1.684;2023-04-03T12:19:03;8.35;;;4.80;;
52574;SDS011;38468;48.114;-1.684;2023-04-03T12:21:24;8.77;;;4.53;;
52574;SDS011;38468;48.114;-1.684;2023-04-03T12:24:00;8.80;;;4.40;;
52574;SDS011;38468;48.114;-1.684;2023-04-03T12:26:05;7.60;;;4.80;;
52574;SDS011;38468;48.114;-1.684;2023-04-03T12:28:22;6.85;;;4.43;;
52574;SDS011;38468;48.114;-1.684;2023-04-03T12:37:07;9.32;;;4.68;;
52574;SDS011;38468;48.114;-1.684;2023-04-03T12:39:25;6.28;;;4.18;;
52574;SDS011;38468;48.114;-1.684;2023-04-03T12:46:37;6.75;;;4.60;;
52574;SDS011;38468;48.114;-1.684;2023-04-03T12:48:50;8.15;;;4.78;;
52574;SDS011;38468;48.114;-1.684;2023-04-03T12:50:53;5.95;;;3.95;;
52574;SDS011;38468;48.114;-1.684;2023-04-03T12:55:13;8.70;;;4.53;;
52574;SDS011;38468;48.114;-1.684;2023-04-03T12:57:19;6.72;;;4.05;;
52574;SDS011;38468;48.114;-1.684;2023-04-03T12:59:24;5.97;;;3.63;;
52574;SDS011;38468;48.114;-1.684;2023-04-03T13:01:26;7.90;;;4.97;;
52574;SDS011;38468;48.114;-1.684;2023-04-03T13:03:27;7.20;;;4.68;;
52574;SDS011;38468;48.114;-1.684;2023-04-03T13:05:29;7.05;;;4.35;;
52574;SDS011;38468;48.114;-1.684;2023-04-03T13:09:33;4.70;;;3.92;;
52574;SDS011;38468;48.114;-1.684;2023-04-03T13:11:35;5.40;;;3.97;;
52574;SDS011;38468;48.114;-1.684;2023-04-03T13:13:38;8.63;;;3.92;;
52574;SDS011;38468;48.114;-1.684;2023-04-03T13:15:40;4.35;;;3.50;;
52574;SDS011;38468;48.114;-1.684;2023-04-03T13:17:43;5.47;;;3.38;;
52574;SDS011;38468;48.114;-1.684;2023-04-03T13:19:45;5.50;;;4.00;;
52574;SDS011;38468;48.114;-1.684;2023-04-03T13:21:46;7.72;;;4.50;;
52574;SDS011;38468;48.114;-1.684;2023-04-03T13:23:48;6.25;;;3.83;;
52574;SDS011;38468;48.114;-1.684;2023-04-03T13:25:51;5.28;;;4.03;;
52574;SDS011;38468;48.114;-1.684;2023-04-03T13:27:52;6.57;;;4.35;;
52574;SDS011;38468;48.114;-1.684;2023-04-03T13:29:54;7.13;;;3.60;;
52574;SDS011;38468;48.114;-1.684;2023-04-03T13:31:58;6.93;;;4.18;;
52574;SDS011;38468;48.114;-1.684;2023-04-03T13:34:07;9.38;;;5.00;;
52574;SDS011;38468;48.114;-1.684;2023-04-03T13:36:19;7.38;;;4.85;;
52574;SDS011;38468;48.114;-1.684;2023-04-03T13:38:23;5.25;;;3.42;;
52574;SDS011;38468;48.114;-1.684;2023-04-03T13:40:27;4.78;;;3.50;;
52574;SDS011;38468;48.114;-1.684;2023-04-03T13:42:29;14.35;;;4.90;;
52574;SDS011;38468;48.114;-1.684;2023-04-03T13:44:33;5.85;;;4.72;;
52574;SDS011;38468;48.114;-1.684;2023-04-03T13:46:36;8.73;;;4.20;;